createdAt,value
2022-10-06T00:01:40.329Z,101333.88
2022-10-06T00:04:10.095Z,101344.63
2022-10-06T00:06:39.828Z,101340.19
2022-10-06T00:09:09.668Z,101352.16
2022-10-06T00:11:39.395Z,101383.06
2022-10-06T00:14:09.171Z,101380.44
2022-10-06T00:16:41.521Z,101388.91
2022-10-06T00:19:11.256Z,101381.06
2022-10-06T00:21:41.067Z,101336.97
2022-10-06T00:24:10.836Z,101371.56
2022-10-06T00:26:40.618Z,101360.41
2022-10-06T00:29:11.757Z,101381.09
2022-10-06T00:31:45.160Z,101380.28
2022-10-06T00:34:14.879Z,101388.06
2022-10-06T00:36:44.607Z,101389.69
2022-10-06T00:39:14.382Z,101395.63
2022-10-06T00:41:44.099Z,101387.97
2022-10-06T00:44:13.850Z,101387.13
2022-10-06T00:46:48.335Z,101369.81
2022-10-06T00:49:21.528Z,101390.50
2022-10-06T00:51:54.904Z,101396.47
2022-10-06T00:54:24.852Z,101405.06
2022-10-06T00:56:55.335Z,101360.13
2022-10-06T00:59:25.095Z,101424.63
2022-10-06T01:02:04.763Z,101399.72
2022-10-06T01:04:36.518Z,101416.91
2022-10-06T01:07:06.912Z,101421.28
2022-10-06T01:09:37.909Z,101425.50
2022-10-06T01:12:10.925Z,101429.84
2022-10-06T01:14:42.386Z,101422.88
2022-10-06T01:17:21.106Z,101406.44
2022-10-06T01:19:54.013Z,101428.81
2022-10-06T01:22:31.898Z,101421.69
2022-10-06T01:25:02.715Z,101440.69
2022-10-06T01:27:34.765Z,101444.00
2022-10-06T01:30:05.248Z,101424.25
2022-10-06T01:32:37.941Z,101446.59
2022-10-06T01:35:10.946Z,101444.88
2022-10-06T01:37:44.758Z,101455.19
2022-10-06T01:40:14.638Z,101456.81
2022-10-06T01:42:44.381Z,101451.59
2022-10-06T01:45:14.111Z,101440.16
2022-10-06T01:47:43.848Z,101465.28
2022-10-06T01:50:14.310Z,101475.56
2022-10-06T01:52:47.567Z,101479.13
2022-10-06T01:55:17.677Z,101479.91
2022-10-06T01:57:47.730Z,101469.56
2022-10-06T02:00:20.026Z,101489.34
2022-10-06T02:02:50.884Z,101480.75
2022-10-06T02:05:20.926Z,101501.34
2022-10-06T02:07:57.159Z,101467.59
2022-10-06T02:10:27.086Z,101491.91
2022-10-06T02:12:57.522Z,101515.97
2022-10-06T02:15:28.583Z,101498.63
2022-10-06T02:17:58.321Z,101522.09
2022-10-06T02:20:30.439Z,101474.41
2022-10-06T02:23:02.863Z,101528.03
2022-10-06T02:25:33.102Z,101540.84
2022-10-06T02:28:02.907Z,101548.56
2022-10-06T02:30:33.087Z,101554.53
2022-10-06T02:33:03.043Z,101555.41
2022-10-06T02:35:33.093Z,101513.66
2022-10-06T02:38:05.602Z,101572.66
2022-10-06T02:40:35.671Z,101572.56
2022-10-06T02:43:05.426Z,101569.19
2022-10-06T02:45:35.233Z,101570.81
2022-10-06T02:48:05.031Z,101591.28
2022-10-06T02:50:35.698Z,101587.75
2022-10-06T02:53:09.804Z,101594.59
2022-10-06T02:55:39.602Z,101598.91
2022-10-06T02:58:11.359Z,101582.63
2022-10-06T03:00:41.213Z,101582.47
2022-10-06T03:03:11.006Z,101609.22
2022-10-06T03:05:40.756Z,101611.81
2022-10-06T03:08:13.499Z,101583.19
2022-10-06T03:10:43.335Z,101607.19
2022-10-06T03:13:13.108Z,101596.78
2022-10-06T03:15:43.389Z,101622.50
2022-10-06T03:18:13.395Z,101629.31
2022-10-06T03:20:43.126Z,101625.91
2022-10-06T03:23:15.567Z,101634.69
2022-10-06T03:25:45.413Z,101635.56
2022-10-06T03:28:15.230Z,101606.06
2022-10-06T03:30:45.043Z,101644.84
2022-10-06T03:33:14.784Z,101643.97
2022-10-06T03:35:44.586Z,101648.91
2022-10-06T03:38:16.960Z,101637.88
2022-10-06T03:40:46.680Z,101643.94
2022-10-06T03:43:16.687Z,101661.00
2022-10-06T03:45:46.551Z,101659.59
2022-10-06T03:48:16.303Z,101663.03
2022-10-06T03:50:46.125Z,101668.16
2022-10-06T03:53:18.896Z,101669.81
2022-10-06T03:55:48.717Z,101675.63
2022-10-06T03:58:19.809Z,101673.88
2022-10-06T04:00:50.107Z,101679.03
2022-10-06T04:03:22.435Z,101676.41
2022-10-06T04:05:57.480Z,101638.34
2022-10-06T04:08:33.579Z,101685.19
2022-10-06T04:11:11.285Z,101706.19
2022-10-06T04:13:41.752Z,101693.41
2022-10-06T04:16:14.124Z,101714.03
2022-10-06T04:18:46.053Z,101635.00
2022-10-06T04:21:16.597Z,101712.69
2022-10-06T04:23:50.226Z,101722.16
2022-10-06T04:26:23.849Z,101716.94
2022-10-06T04:28:57.177Z,101727.22
2022-10-06T04:31:32.900Z,101746.06
2022-10-06T04:34:04.345Z,101735.47
2022-10-06T04:36:38.247Z,101741.47
2022-10-06T04:39:13.475Z,101752.66
2022-10-06T04:41:48.993Z,101739.63
2022-10-06T04:44:26.236Z,101764.53
2022-10-06T04:47:01.350Z,101766.72
2022-10-06T04:49:32.210Z,101756.34
2022-10-06T04:52:02.227Z,101724.19
2022-10-06T04:54:38.626Z,101794.34
2022-10-06T04:57:10.402Z,101782.09
2022-10-06T04:59:53.431Z,101802.06
2022-10-06T05:02:25.706Z,101805.44
2022-10-06T05:04:59.254Z,101815.00
2022-10-06T05:07:29.125Z,101805.59
2022-10-06T05:10:03.194Z,101834.28
2022-10-06T05:12:35.124Z,101835.75
2022-10-06T05:15:09.736Z,101821.97
2022-10-06T05:17:40.784Z,101817.44
2022-10-06T05:20:13.701Z,101849.59
2022-10-06T05:22:45.783Z,101853.00
2022-10-06T05:25:19.348Z,101820.09
2022-10-06T05:27:50.424Z,101869.50
2022-10-06T05:30:21.226Z,101855.47
2022-10-06T05:32:54.855Z,101874.69
2022-10-06T05:35:24.688Z,101884.84
2022-10-06T05:37:57.507Z,101880.31
2022-10-06T05:40:30.923Z,101873.63
2022-10-06T05:43:02.026Z,101887.81
2022-10-06T05:45:33.044Z,101893.06
2022-10-06T05:48:03.960Z,101890.25
2022-10-06T05:50:34.983Z,101890.91
2022-10-06T05:53:06.437Z,101916.03
2022-10-06T05:55:39.906Z,101875.44
2022-10-06T05:58:11.312Z,101910.63
2022-10-06T06:00:43.987Z,101923.94
2022-10-06T06:03:14.792Z,101921.75
2022-10-06T06:05:45.903Z,101921.59
2022-10-06T06:08:16.689Z,101934.50
2022-10-06T06:10:49.938Z,101933.25
2022-10-06T06:13:22.696Z,101956.78
2022-10-06T06:16:09.257Z,101945.97
2022-10-06T06:18:40.584Z,101941.22
2022-10-06T06:21:13.536Z,101927.34
2022-10-06T06:23:47.078Z,101954.53
2022-10-06T06:26:23.583Z,101968.66
2022-10-06T06:28:57.316Z,101959.22
2022-10-06T06:31:29.889Z,101987.63
2022-10-06T06:34:04.839Z,101993.78
2022-10-06T06:36:36.899Z,101996.38
2022-10-06T06:39:13.602Z,101998.25
2022-10-06T06:41:48.912Z,101992.88
2022-10-06T06:44:43.143Z,102001.53
2022-10-06T06:47:26.741Z,101966.59
2022-10-06T06:49:58.909Z,102010.47
2022-10-06T06:52:30.116Z,102020.59
2022-10-06T06:55:00.736Z,102028.94
2022-10-06T06:57:33.634Z,101991.47
2022-10-06T07:00:08.355Z,102052.81
2022-10-06T07:02:40.954Z,102049.94
2022-10-06T07:05:12.409Z,102038.94
2022-10-06T07:07:44.416Z,102030.13
2022-10-06T07:10:15.252Z,102063.97
2022-10-06T07:12:48.821Z,102058.34
2022-10-06T07:15:33.923Z,102078.31
2022-10-06T07:18:18.817Z,102066.84
2022-10-06T07:21:01.277Z,102075.16
2022-10-06T07:23:50.138Z,102031.97
2022-10-06T07:26:24.235Z,102087.75
2022-10-06T07:29:00.085Z,102079.06
2022-10-06T07:31:33.603Z,102102.41
2022-10-06T07:34:06.552Z,102105.91
2022-10-06T07:36:38.380Z,102096.50
2022-10-06T07:39:11.243Z,102097.44
2022-10-06T07:41:42.381Z,102091.31
2022-10-06T07:44:15.773Z,102112.38
2022-10-06T07:46:48.627Z,102096.13
2022-10-06T07:49:22.727Z,102095.88
2022-10-06T07:51:53.745Z,102108.09
2022-10-06T07:54:27.451Z,102129.94
2022-10-06T07:57:16.573Z,102106.59
2022-10-06T07:59:48.894Z,102127.38
2022-10-06T08:02:20.383Z,102129.13
2022-10-06T08:04:50.205Z,102138.69
2022-10-06T08:07:20.992Z,102138.75
2022-10-06T08:09:54.733Z,102147.81
2022-10-06T08:12:38.042Z,102151.38
2022-10-06T08:15:13.807Z,102148.69
2022-10-06T08:17:44.913Z,102167.84
2022-10-06T08:20:17.263Z,102138.47
2022-10-06T08:22:50.652Z,102166.16
2022-10-06T08:25:21.370Z,102179.25
2022-10-06T08:27:53.610Z,102179.94
2022-10-06T08:30:27.402Z,102131.69
2022-10-06T08:32:59.231Z,102184.00
2022-10-06T08:35:30.521Z,102197.47
2022-10-06T08:38:02.432Z,102202.09
2022-10-06T08:40:34.545Z,102198.66
2022-10-06T08:43:06.381Z,102203.94
2022-10-06T08:45:45.477Z,102188.81
2022-10-06T08:48:21.388Z,102175.09
2022-10-06T08:51:01.974Z,102202.50
2022-10-06T08:53:40.420Z,102201.69
2022-10-06T08:56:18.328Z,102212.13
2022-10-06T08:58:55.728Z,102216.34
2022-10-06T09:01:33.699Z,102174.16
2022-10-06T09:04:08.096Z,102217.91
2022-10-06T09:06:49.547Z,102229.69
2022-10-06T09:09:30.632Z,102218.63
2022-10-06T09:12:10.230Z,102236.03
2022-10-06T09:14:45.761Z,102238.72
2022-10-06T09:17:26.216Z,102245.03
2022-10-06T09:20:02.828Z,102225.56
2022-10-06T09:22:34.505Z,102238.72
2022-10-06T09:25:18.111Z,102220.81
2022-10-06T09:27:51.677Z,102237.28
2022-10-06T09:30:22.841Z,102239.03
2022-10-06T09:33:00.587Z,102257.31
2022-10-06T09:35:31.983Z,102234.97
2022-10-06T09:38:08.591Z,102256.75
2022-10-06T09:40:44.434Z,102268.81
2022-10-06T09:43:25.560Z,102263.16
2022-10-06T09:45:58.284Z,102250.81
2022-10-06T09:48:30.637Z,102260.41
2022-10-06T09:51:15.020Z,102278.59
2022-10-06T09:54:07.745Z,102271.66
2022-10-06T09:56:37.485Z,102261.03
2022-10-06T09:59:17.690Z,102215.19
2022-10-06T10:01:55.278Z,102276.47
2022-10-06T10:04:30.416Z,102276.22
2022-10-06T10:07:16.621Z,102297.31
2022-10-06T10:09:46.404Z,102271.34
2022-10-06T10:12:31.595Z,102281.19
2022-10-06T10:15:04.557Z,102287.47
2022-10-06T10:17:47.408Z,102275.94
2022-10-06T10:20:37.497Z,102288.59
2022-10-06T10:23:21.135Z,102292.28
2022-10-06T10:26:04.514Z,102261.19
2022-10-06T10:28:56.359Z,102257.44
2022-10-06T10:31:39.477Z,102264.34
2022-10-06T10:34:24.312Z,102291.00
2022-10-06T10:37:00.195Z,102298.34
2022-10-06T10:39:36.263Z,102287.47
2022-10-06T10:42:15.436Z,102288.63
2022-10-06T10:44:53.291Z,102283.19
2022-10-06T10:47:28.597Z,102289.53
2022-10-06T10:50:07.319Z,102298.09
2022-10-06T10:52:44.082Z,102296.53
2022-10-06T10:55:27.095Z,102276.22
2022-10-06T10:58:01.166Z,102284.34
2022-10-06T11:00:35.428Z,102277.59
2022-10-06T11:03:05.403Z,102302.09
2022-10-06T11:05:50.399Z,102302.13
2022-10-06T11:08:30.660Z,102304.41
2022-10-06T11:11:03.590Z,102311.09
2022-10-06T11:13:41.419Z,102318.97
2022-10-06T11:16:21.616Z,102329.31
2022-10-06T11:19:14.821Z,102317.09
2022-10-06T11:21:54.762Z,102326.41
2022-10-06T11:24:38.351Z,102307.34
2022-10-06T11:27:20.873Z,102326.44
2022-10-06T11:30:05.317Z,102323.16
2022-10-06T11:32:49.971Z,102135.53
2022-10-06T11:35:23.253Z,102313.81
2022-10-06T11:38:00.097Z,102326.75
2022-10-06T11:40:48.036Z,102327.91
2022-10-06T11:43:26.246Z,102324.38
2022-10-06T11:46:04.580Z,102307.28
2022-10-06T11:48:36.157Z,102300.50
2022-10-06T11:51:33.327Z,102265.84
2022-10-06T11:54:05.821Z,102308.25
2022-10-06T11:56:42.511Z,102313.50
2022-10-06T11:59:25.903Z,102303.44
2022-10-06T12:01:58.777Z,102289.50
2022-10-06T12:04:29.666Z,102302.72
2022-10-06T12:07:08.308Z,102245.66
2022-10-06T12:09:52.646Z,102289.25
2022-10-06T12:13:06.881Z,102292.78
2022-10-06T12:19:02.411Z,102293.94
2022-10-06T12:21:46.763Z,102287.75
2022-10-06T12:24:27.683Z,102303.84
2022-10-06T12:27:13.705Z,102297.84
2022-10-06T12:29:52.994Z,102299.09
2022-10-06T12:32:40.273Z,102309.44
2022-10-06T12:35:24.701Z,102298.72
2022-10-06T12:37:55.422Z,102297.91
2022-10-06T12:40:58.057Z,102254.56
2022-10-06T12:43:37.137Z,102300.50
2022-10-06T12:46:16.891Z,102284.22
2022-10-06T12:48:56.403Z,102291.84
2022-10-06T12:54:27.255Z,102293.78
2022-10-06T12:57:02.080Z,102293.78
2022-10-06T12:59:34.995Z,102297.06
2022-10-06T13:02:13.199Z,102299.75
2022-10-06T13:04:45.734Z,102295.53
2022-10-06T13:07:20.840Z,102279.91
2022-10-06T13:09:52.834Z,102306.06
2022-10-06T13:12:26.254Z,102283.78
2022-10-06T13:15:29.578Z,102281.94
2022-10-06T13:18:12.709Z,102280.34
2022-10-06T13:20:45.535Z,102292.50
2022-10-06T13:23:28.708Z,102294.19
2022-10-06T13:26:00.596Z,102297.59
2022-10-06T13:28:42.784Z,102279.31
2022-10-06T13:31:20.810Z,102286.34
2022-10-06T13:33:57.178Z,102292.28
2022-10-06T13:36:28.912Z,102277.34
2022-10-06T13:39:00.100Z,102283.66
2022-10-06T13:41:32.930Z,102285.72
2022-10-06T13:44:07.230Z,102291.03
2022-10-06T13:46:42.437Z,102294.31
2022-10-06T13:49:21.540Z,102290.06
2022-10-06T13:51:56.891Z,102296.16
2022-10-06T13:54:32.174Z,102298.72
2022-10-06T13:57:02.078Z,102301.75
2022-10-06T13:59:38.509Z,102305.66
2022-10-06T14:02:28.190Z,102299.34
2022-10-06T14:05:29.946Z,102294.16
2022-10-06T14:08:05.567Z,102296.78
2022-10-06T14:10:47.456Z,102291.50
2022-10-06T14:13:21.525Z,102298.84
2022-10-06T14:15:54.875Z,102301.94
2022-10-06T14:18:28.054Z,102288.03
2022-10-06T14:21:01.607Z,102293.59
2022-10-06T14:23:46.120Z,102292.13
2022-10-06T14:26:17.593Z,102285.78
2022-10-06T14:28:54.160Z,102295.13
2022-10-06T14:31:25.039Z,102298.59
2022-10-06T14:33:57.783Z,102298.81
2022-10-06T14:36:33.619Z,102304.25
2022-10-06T14:39:05.295Z,102298.22
2022-10-06T14:41:37.346Z,102277.34
2022-10-06T14:44:11.482Z,102304.00
2022-10-06T14:46:43.975Z,102306.72
2022-10-06T14:49:15.168Z,102294.69
2022-10-06T14:51:47.691Z,102303.44
2022-10-06T14:54:18.123Z,102302.38
2022-10-06T14:56:52.285Z,102302.03
2022-10-06T14:59:24.790Z,102312.06
2022-10-06T15:01:55.600Z,102306.47
2022-10-06T15:04:28.015Z,102303.84
2022-10-06T15:07:13.829Z,102243.22
2022-10-06T15:09:45.391Z,102296.84
2022-10-06T15:12:17.860Z,102296.81
2022-10-06T15:14:48.667Z,102292.66
2022-10-06T15:17:19.416Z,102296.19
2022-10-06T15:19:49.476Z,102299.06
2022-10-06T15:22:22.783Z,102294.75
2022-10-06T15:24:55.842Z,102266.56
2022-10-06T15:30:12.320Z,102284.06
2022-10-06T15:32:43.285Z,102307.66
2022-10-06T15:35:13.022Z,102307.75
2022-10-06T15:37:45.423Z,102299.06
2022-10-06T15:40:15.200Z,102301.50
2022-10-06T15:42:45.003Z,102304.31
2022-10-06T15:45:16.991Z,102305.25
2022-10-06T15:47:48.443Z,102293.97
2022-10-06T15:50:19.371Z,102296.94
2022-10-06T15:52:52.034Z,102297.91
2022-10-06T15:55:22.731Z,102301.38
2022-10-06T15:57:53.488Z,102303.84
2022-10-06T16:00:24.199Z,102308.81
2022-10-06T16:02:55.969Z,102306.03
2022-10-06T16:05:38.986Z,102293.88
2022-10-06T16:08:12.347Z,102295.28
2022-10-06T16:10:43.011Z,102304.56
2022-10-06T16:13:13.843Z,102307.88
2022-10-06T16:15:45.697Z,102309.56
2022-10-06T16:18:15.478Z,102306.19
2022-10-06T16:20:45.245Z,102287.72
2022-10-06T16:23:18.590Z,102306.03
2022-10-06T16:25:49.478Z,102311.06
2022-10-06T16:28:19.401Z,102321.28
2022-10-06T16:30:57.228Z,102314.50
2022-10-06T16:33:28.099Z,102312.47
2022-10-06T16:35:58.347Z,102320.09
2022-10-06T16:38:31.723Z,102309.66
2022-10-06T16:41:02.867Z,102305.16
2022-10-06T16:43:34.002Z,102322.38
2022-10-06T16:46:06.424Z,102312.69
2022-10-06T16:48:39.618Z,102322.13
2022-10-06T16:51:11.408Z,102310.69
2022-10-06T16:53:48.979Z,102325.47
2022-10-06T16:56:20.581Z,102321.84
2022-10-06T16:58:53.510Z,102330.47
2022-10-06T17:01:25.422Z,102332.09
2022-10-06T17:04:00.249Z,102334.56
2022-10-06T17:06:30.051Z,102335.25
2022-10-06T17:09:02.612Z,102322.22
2022-10-06T17:11:32.425Z,102330.63
2022-10-06T17:14:02.248Z,102282.59
2022-10-06T17:16:34.483Z,102332.13
2022-10-06T17:19:04.978Z,102333.63
2022-10-06T17:21:55.689Z,102344.78
2022-10-06T17:24:28.794Z,102342.59
2022-10-06T17:27:01.102Z,102345.94
2022-10-06T17:29:30.941Z,102353.59
2022-10-06T17:32:02.736Z,102353.41
2022-10-06T17:34:34.275Z,102343.59
2022-10-06T17:37:05.155Z,102302.63
2022-10-06T17:39:38.502Z,102358.28
2022-10-06T17:42:08.944Z,102334.56
2022-10-06T17:44:39.722Z,102360.38
2022-10-06T17:47:12.635Z,102314.91
2022-10-06T17:49:42.446Z,102353.84
2022-10-06T17:52:12.406Z,102354.66
2022-10-06T17:54:46.447Z,102345.94
2022-10-06T17:57:16.293Z,102349.16
2022-10-06T17:59:47.107Z,102329.91
2022-10-06T18:02:17.125Z,102344.47
2022-10-06T18:04:47.549Z,102357.44
2022-10-06T18:07:18.294Z,102355.50
2022-10-06T18:10:10.794Z,102361.34
2022-10-06T18:12:38.544Z,102357.41
2022-10-06T18:15:11.077Z,102351.38
2022-10-06T18:17:42.362Z,102358.09
2022-10-06T18:20:12.456Z,102363.22
2022-10-06T18:22:43.833Z,102361.34
2022-10-06T18:25:17.542Z,102361.41
2022-10-06T18:27:49.244Z,102310.69
2022-10-06T18:30:19.457Z,102360.13
2022-10-06T18:38:31.516Z,102353.66
2022-10-06T18:41:05.783Z,102346.63
2022-10-06T18:43:36.651Z,102357.88
2022-10-06T18:46:21.704Z,102340.34
2022-10-06T18:48:58.662Z,102328.69
2022-10-06T18:51:37.393Z,102347.16
2022-10-06T18:54:10.967Z,102299.38
2022-10-06T18:56:49.982Z,102360.13
2022-10-06T18:59:23.389Z,102356.53
2022-10-06T19:01:54.255Z,102342.41
2022-10-06T19:04:27.119Z,102361.31
2022-10-06T19:06:58.452Z,102363.72
2022-10-06T19:09:29.362Z,102372.97
2022-10-06T19:12:02.758Z,102325.75
2022-10-06T19:14:35.942Z,102339.50
2022-10-06T19:17:12.699Z,102354.22
2022-10-06T19:19:45.637Z,102358.28
2022-10-06T19:22:17.239Z,102240.31
2022-10-06T19:24:48.656Z,102366.69
2022-10-06T19:27:25.133Z,102362.28
2022-10-06T19:29:57.748Z,102350.56
2022-10-06T19:32:32.117Z,102368.91
2022-10-06T19:35:09.223Z,102373.69
2022-10-06T19:37:40.935Z,102326.22
2022-10-06T19:40:11.555Z,102347.78
2022-10-06T19:42:48.738Z,102373.16
2022-10-06T19:45:21.052Z,102349.06
2022-10-06T19:47:52.189Z,102363.94
2022-10-06T19:50:23.122Z,102323.66
2022-10-06T19:52:53.940Z,102365.69
2022-10-06T19:55:26.037Z,102343.91
2022-10-06T19:58:00.101Z,102368.03
2022-10-06T20:00:31.358Z,102354.91
2022-10-06T20:03:01.115Z,102367.53
2022-10-06T20:05:31.864Z,102323.94
2022-10-06T20:08:04.002Z,102368.91
2022-10-06T20:10:34.880Z,102366.97
2022-10-06T20:13:09.878Z,102338.16
2022-10-06T20:15:40.706Z,102350.94
2022-10-06T20:18:12.112Z,102323.06
2022-10-06T20:20:42.935Z,102365.97
2022-10-06T20:23:13.781Z,102348.47
2022-10-06T20:25:44.569Z,102364.97
2022-10-06T20:28:17.107Z,102352.56
2022-10-06T20:30:50.098Z,102366.00
2022-10-06T20:33:22.073Z,102340.75
2022-10-06T20:35:51.828Z,102360.47
2022-10-06T20:38:43.200Z,102359.72
2022-10-06T20:41:10.381Z,102367.78
2022-10-06T20:43:43.726Z,102367.56
2022-10-06T20:46:14.797Z,102359.38
2022-10-06T20:48:45.689Z,102343.50
2022-10-06T20:51:16.500Z,102374.88
2022-10-06T20:53:47.558Z,102356.47
2022-10-06T20:56:18.159Z,102351.91
2022-10-06T20:58:51.726Z,102375.69
2022-10-06T21:01:24.769Z,102359.09
2022-10-06T21:03:56.108Z,102363.53
2022-10-06T21:06:27.249Z,102336.38
2022-10-06T21:08:58.498Z,102361.69
2022-10-06T21:11:29.658Z,102361.50
2022-10-06T21:14:02.390Z,102328.88
2022-10-06T21:16:37.084Z,102349.16
2022-10-06T21:19:11.011Z,102353.91
2022-10-06T21:21:41.236Z,102333.88
2022-10-06T21:24:12.768Z,102345.03
2022-10-06T21:26:42.999Z,102349.34
2022-10-06T21:29:16.967Z,102363.94
2022-10-06T21:31:47.768Z,102357.63
2022-10-06T21:34:19.047Z,102342.84
2022-10-06T21:36:49.000Z,102348.00
2022-10-06T21:39:20.280Z,102354.72
2022-10-06T21:41:50.354Z,102347.56
2022-10-06T21:44:24.020Z,102349.47
2022-10-06T21:46:55.620Z,102336.25
2022-10-06T21:49:28.506Z,102340.84
2022-10-06T21:52:04.871Z,102339.91
2022-10-06T21:54:35.931Z,102345.91
2022-10-06T21:57:08.267Z,102330.00
2022-10-06T21:59:40.914Z,102314.53
2022-10-06T22:02:12.041Z,102342.22
2022-10-06T22:04:42.201Z,102320.72
2022-10-06T22:07:12.247Z,102345.25
2022-10-06T22:09:43.310Z,102336.72
2022-10-06T22:12:14.392Z,102233.50
2022-10-06T22:14:48.182Z,102307.03
2022-10-06T22:17:18.260Z,102338.97
2022-10-06T22:19:48.283Z,102300.50
2022-10-06T22:22:18.461Z,102314.34
2022-10-06T22:24:49.581Z,102333.47
2022-10-06T22:27:19.653Z,102320.75
2022-10-06T22:29:52.291Z,102333.03
2022-10-06T22:32:23.459Z,102325.06
2022-10-06T22:34:54.152Z,102325.06
2022-10-06T22:37:25.319Z,102294.38
2022-10-06T22:39:55.380Z,102316.19
2022-10-06T22:42:25.428Z,102285.72
2022-10-06T22:44:58.020Z,102316.84
2022-10-06T22:47:28.015Z,102266.59
2022-10-06T22:49:58.092Z,102305.69
2022-10-06T22:52:28.073Z,102289.00
2022-10-06T22:54:58.109Z,102300.84
2022-10-06T22:57:28.121Z,102279.13
2022-10-06T23:00:00.710Z,102215.72
2022-10-06T23:02:30.700Z,102298.56
2022-10-06T23:05:00.699Z,102291.69
2022-10-06T23:07:31.420Z,102299.03
2022-10-06T23:10:01.505Z,102278.16
2022-10-06T23:12:31.670Z,102232.69
2022-10-06T23:15:04.319Z,102279.47
2022-10-06T23:17:34.338Z,102277.72
2022-10-06T23:20:04.721Z,102275.44
2022-10-06T23:22:34.772Z,102258.09
2022-10-06T23:25:04.932Z,102255.47
2022-10-06T23:27:35.141Z,102208.06
2022-10-06T23:30:09.738Z,102236.25
2022-10-06T23:32:40.985Z,102202.16
2022-10-06T23:35:11.716Z,102266.03
2022-10-06T23:37:42.216Z,102226.53
2022-10-06T23:40:13.623Z,102265.22
2022-10-06T23:42:43.680Z,102207.47
2022-10-06T23:45:16.536Z,102272.31
2022-10-06T23:47:46.862Z,102265.22
2022-10-06T23:50:17.057Z,102266.09
2022-10-06T23:52:47.062Z,102262.72
2022-10-06T23:55:17.239Z,102262.72
2022-10-06T23:57:47.293Z,102255.81
